Time;durP1;ratioP1;P1;durP2;ratioP2;P2;SDS_P1;SDS_P2;PMS_P1;PMS_P2;Temp;Humidity;BMP_temperature;BMP_pressure;BME280_temperature;BME280_humidity;BME280_pressure;Samples;Min_cycle;Max_cycle;Signal;HPM_P1;HPM_P2
2023/04/21 00:01:59;;;;;;;2.90;1.30;;;;;;;;;;5104841;27;95234;-62
2023/04/21 00:04:28;;;;;;;1.27;1.17;;;;;;;;;;5102924;27;94752;-62
2023/04/21 00:07:00;;;;;;;1.13;0.90;;;;;;;;;;5102512;27;92000;-62
2023/04/21 00:09:28;;;;;;;1.50;1.03;;;;;;;;;;5102670;27;91946;-62
2023/04/21 00:11:56;;;;;;;1.20;1.00;;;;;;;;;;5101115;27;94130;-63
2023/04/21 00:14:25;;;;;;;1.27;1.10;;;;;;;;;;5092630;27;94147;-62
2023/04/21 00:16:54;;;;;;;2.50;1.00;;;;;;;;;;5081590;27;92079;-63
2023/04/21 00:19:23;;;;;;;1.70;1.40;;;;;;;;;;5082163;27;91315;-63
2023/04/21 00:21:57;;;;;;;1.00;1.00;;;;;;;;;;5087884;27;93957;-63
2023/04/21 00:24:25;;;;;;;1.43;1.20;;;;;;;;;;5081880;27;93826;-63
2023/04/21 00:26:53;;;;;;;0.90;0.90;;;;;;;;;;5087962;27;92982;-63
2023/04/21 00:29:22;;;;;;;5.03;1.13;;;;;;;;;;5095255;27;91989;-63
2023/04/21 00:31:50;;;;;;;3.37;1.00;;;;;;;;;;5080944;27;93891;-63
2023/04/21 00:34:20;;;;;;;1.30;1.10;;;;;;;;;;5080905;27;94074;-63
2023/04/21 00:36:48;;;;;;;0.87;0.80;;;;;;;;;;5081138;27;92035;-62
2023/04/21 00:39:16;;;;;;;1.50;1.07;;;;;;;;;;5081072;27;92017;-62
2023/04/21 00:41:45;;;;;;;0.93;0.90;;;;;;;;;;5092746;27;95334;-62
2023/04/21 00:44:13;;;;;;;2.03;1.07;;;;;;;;;;5101479;27;93833;-62
2023/04/21 00:46:42;;;;;;;1.17;0.80;;;;;;;;;;5088847;27;92022;-63
2023/04/21 00:49:12;;;;;;;0.93;0.80;;;;;;;;;;5123016;27;91738;-63
2023/04/21 00:51:41;;;;;;;1.37;1.00;;;;;;;;;;5112858;27;95184;-63
2023/04/21 00:54:10;;;;;;;1.20;1.10;;;;;;;;;;5102487;27;94726;-62
2023/04/21 00:56:38;;;;;;;1.50;1.27;;;;;;;;;;5112499;27;92021;-63
2023/04/21 00:59:06;;;;;;;0.80;0.80;;;;;;;;;;5102008;27;92113;-62
2023/04/21 01:01:35;;;;;;;1.27;1.10;;;;;;;;;;5101170;27;94219;-62
2023/04/21 01:04:03;;;;;;;1.00;1.00;;;;;;;;;;5101323;27;93842;-63
2023/04/21 01:06:32;;;;;;;2.20;0.93;;;;;;;;;;5101569;27;92162;-63
2023/04/21 01:09:03;;;;;;;1.27;1.17;;;;;;;;;;5102298;27;91367;-62
2023/04/21 01:11:31;;;;;;;0.53;0.53;;;;;;;;;;5100981;27;94045;-62
2023/04/21 01:14:00;;;;;;;1.20;0.90;;;;;;;;;;5100738;27;93832;-62
2023/04/21 01:16:28;;;;;;;1.07;1.07;;;;;;;;;;5101069;27;93065;-63
2023/04/21 01:18:57;;;;;;;0.93;0.90;;;;;;;;;;5101523;27;91996;-63
2023/04/21 01:21:27;;;;;;;2.23;1.50;;;;;;;;;;5101904;27;94197;-62
2023/04/21 01:23:57;;;;;;;0.90;0.87;;;;;;;;;;5101001;27;93870;-62
2023/04/21 01:26:25;;;;;;;0.90;0.90;;;;;;;;;;5101581;27;92043;-62
2023/04/21 01:28:53;;;;;;;2.13;1.20;;;;;;;;;;5088300;27;92155;-62
2023/04/21 01:31:23;;;;;;;1.13;0.90;;;;;;;;;;5108865;27;95664;-62
2023/04/21 01:33:51;;;;;;;1.37;1.13;;;;;;;;;;5101213;27;93876;-62
2023/04/21 01:36:19;;;;;;;1.03;0.93;;;;;;;;;;5108122;27;92199;-62
2023/04/21 01:38:47;;;;;;;1.00;0.90;;;;;;;;;;5097095;27;92093;-62
2023/04/21 01:41:17;;;;;;;1.17;1.07;;;;;;;;;;5111992;27;95128;-63
2023/04/21 01:43:45;;;;;;;2.47;1.20;;;;;;;;;;5097007;27;94798;-63
2023/04/21 01:46:14;;;;;;;1.30;1.20;;;;;;;;;;5102485;27;92196;-63
2023/04/21 01:48:42;;;;;;;2.63;1.07;;;;;;;;;;5101446;27;92152;-62
2023/04/21 01:51:11;;;;;;;2.60;1.30;;;;;;;;;;5092104;27;94156;-62
2023/04/21 01:53:39;;;;;;;1.13;1.03;;;;;;;;;;5112674;27;93840;-63
2023/04/21 01:56:08;;;;;;;1.00;1.00;;;;;;;;;;5101175;27;92250;-63
2023/04/21 01:58:38;;;;;;;0.90;0.90;;;;;;;;;;5105630;27;91279;-62
2023/04/21 02:01:06;;;;;;;1.67;1.10;;;;;;;;;;5105832;27;94308;-62
2023/04/21 02:03:35;;;;;;;1.73;0.93;;;;;;;;;;5104754;27;93812;-63
2023/04/21 02:06:04;;;;;;;1.23;1.03;;;;;;;;;;5116735;27;94587;-62
2023/04/21 02:08:32;;;;;;;1.27;1.17;;;;;;;;;;5115958;27;91985;-63
2023/04/21 02:11:01;;;;;;;1.63;1.00;;;;;;;;;;5105776;27;94333;-62
2023/04/21 02:13:30;;;;;;;2.20;1.20;;;;;;;;;;5102533;27;93827;-62
2023/04/21 02:16:00;;;;;;;2.33;1.47;;;;;;;;;;5116360;27;92255;-62
2023/04/21 02:18:41;;;;;;;0.80;0.63;;;;;;;;;;5116670;27;91780;-63
2023/04/21 02:21:09;;;;;;;3.47;1.37;;;;;;;;;;5119384;27;94461;-62
2023/04/21 02:23:38;;;;;;;1.67;1.10;;;;;;;;;;5121275;27;93988;-62
2023/04/21 02:26:06;;;;;;;1.80;1.23;;;;;;;;;;5107378;27;92153;-62
2023/04/21 02:28:35;;;;;;;1.70;1.03;;;;;;;;;;5101694;27;92064;-62
2023/04/21 02:31:05;;;;;;;1.50;0.83;;;;;;;;;;5112296;27;95157;-62
2023/04/21 02:33:33;;;;;;;0.90;0.90;;;;;;;;;;5110266;27;94791;-62
2023/04/21 02:36:02;;;;;;;1.37;1.10;;;;;;;;;;5085918;27;91903;-62
2023/04/21 02:38:30;;;;;;;2.83;1.43;;;;;;;;;;5092238;27;92486;-62
2023/04/21 02:41:00;;;;;;;1.00;0.97;;;;;;;;;;5110306;27;94082;-62
2023/04/21 02:43:28;;;;;;;1.67;1.37;;;;;;;;;;5107378;27;93063;-62
2023/04/21 02:45:56;;;;;;;0.77;0.77;;;;;;;;;;5102759;27;92017;-63
2023/04/21 02:48:27;;;;;;;2.17;1.20;;;;;;;;;;5097094;27;91346;-62
2023/04/21 02:50:55;;;;;;;2.13;1.43;;;;;;;;;;5102816;27;94170;-62
2023/04/21 02:53:23;;;;;;;1.40;1.30;;;;;;;;;;5103077;27;93898;-62
2023/04/21 02:55:52;;;;;;;1.13;0.97;;;;;;;;;;5103722;27;92812;-62
2023/04/21 02:58:20;;;;;;;2.00;1.20;;;;;;;;;;5103388;27;92048;-63
2023/04/21 03:00:48;;;;;;;1.50;1.27;;;;;;;;;;5103064;27;94133;-62
2023/04/21 03:03:17;;;;;;;3.10;1.23;;;;;;;;;;5103386;27;93880;-62
2023/04/21 03:05:47;;;;;;;1.00;0.73;;;;;;;;;;5089282;27;93179;-62
2023/04/21 03:08:15;;;;;;;2.37;1.00;;;;;;;;;;5082771;27;91899;-62
2023/04/21 03:10:44;;;;;;;0.83;0.77;;;;;;;;;;5098084;27;94082;-62
2023/04/21 03:13:13;;;;;;;1.07;0.87;;;;;;;;;;5100374;27;93831;-62
2023/04/21 03:15:42;;;;;;;2.27;1.50;;;;;;;;;;5082504;27;93552;-62
2023/04/21 03:18:10;;;;;;;0.90;0.90;;;;;;;;;;5113468;27;92151;-62
2023/04/21 03:20:39;;;;;;;1.10;1.03;;;;;;;;;;5086122;27;95078;-62
2023/04/21 03:23:10;;;;;;;1.37;1.00;;;;;;;;;;5078890;27;94694;-62
2023/04/21 03:25:39;;;;;;;2.33;1.03;;;;;;;;;;5077660;27;92835;-62
2023/04/21 03:28:07;;;;;;;1.27;1.17;;;;;;;;;;5081784;27;92578;-62
2023/04/21 03:30:35;;;;;;;1.70;1.30;;;;;;;;;;5081444;27;95423;-62
2023/04/21 03:33:05;;;;;;;1.00;0.90;;;;;;;;;;5098847;27;92740;-63
2023/04/21 03:35:34;;;;;;;1.27;1.10;;;;;;;;;;5104566;27;93886;-62
2023/04/21 03:38:02;;;;;;;2.00;1.17;;;;;;;;;;5106920;27;91358;-63
2023/04/21 03:40:32;;;;;;;1.27;1.17;;;;;;;;;;5084622;27;94435;-62
2023/04/21 03:43:01;;;;;;;1.57;1.00;;;;;;;;;;5098351;27;93835;-62
2023/04/21 03:45:29;;;;;;;1.30;1.03;;;;;;;;;;5097800;27;93040;-62
2023/04/21 03:47:58;;;;;;;2.10;1.20;;;;;;;;;;5097862;27;92169;-62
2023/04/21 03:50:27;;;;;;;1.10;0.80;;;;;;;;;;5108877;27;94030;-62
2023/04/21 03:52:56;;;;;;;0.70;0.70;;;;;;;;;;5094489;27;94165;-62
2023/04/21 03:55:24;;;;;;;1.40;0.90;;;;;;;;;;5109284;27;92170;-62
2023/04/21 03:57:54;;;;;;;1.73;1.10;;;;;;;;;;5118252;27;91870;-62
2023/04/21 04:00:22;;;;;;;1.07;0.97;;;;;;;;;;5103807;27;93644;-62
2023/04/21 04:02:51;;;;;;;1.07;0.90;;;;;;;;;;5104664;27;93901;-62
2023/04/21 04:05:19;;;;;;;1.50;1.13;;;;;;;;;;5084323;27;92428;-62
2023/04/21 04:07:48;;;;;;;1.23;1.13;;;;;;;;;;5110112;27;92105;-62
2023/04/21 04:10:16;;;;;;;0.97;0.77;;;;;;;;;;5120598;27;95124;-62
2023/04/21 04:12:45;;;;;;;1.57;1.37;;;;;;;;;;5102794;27;93640;-63
2023/04/21 04:15:15;;;;;;;0.93;0.87;;;;;;;;;;5088974;27;91938;-63
2023/04/21 04:17:43;;;;;;;0.87;0.87;;;;;;;;;;5114034;27;92164;-63
2023/04/21 04:20:12;;;;;;;2.13;1.30;;;;;;;;;;5089107;27;94312;-62
2023/04/21 04:22:41;;;;;;;1.50;1.10;;;;;;;;;;5101207;27;93723;-63
2023/04/21 04:25:11;;;;;;;2.03;1.47;;;;;;;;;;5106455;27;91988;-63
2023/04/21 04:27:40;;;;;;;2.03;1.30;;;;;;;;;;5103972;27;91167;-63
2023/04/21 04:30:09;;;;;;;1.03;0.93;;;;;;;;;;5118779;27;94171;-62
2023/04/21 04:32:40;;;;;;;1.67;0.73;;;;;;;;;;5102088;27;93874;-62
2023/04/21 04:35:09;;;;;;;1.50;1.40;;;;;;;;;;5103541;27;92953;-62
2023/04/21 04:37:37;;;;;;;1.73;1.20;;;;;;;;;;5109669;27;92148;-63
2023/04/21 04:40:08;;;;;;;1.07;0.97;;;;;;;;;;5114135;27;94068;-62
2023/04/21 04:42:38;;;;;;;1.53;1.03;;;;;;;;;;5102700;27;93904;-62
2023/04/21 04:45:07;;;;;;;2.60;1.20;;;;;;;;;;5117746;27;92090;-62
2023/04/21 04:47:35;;;;;;;1.57;0.80;;;;;;;;;;5105789;27;92123;-63
2023/04/21 04:50:05;;;;;;;2.00;1.13;;;;;;;;;;5101405;27;94066;-62
2023/04/21 04:52:34;;;;;;;1.00;0.90;;;;;;;;;;5101592;27;93781;-63
2023/04/21 04:55:03;;;;;;;2.30;1.10;;;;;;;;;;5102002;27;92041;-62
2023/04/21 04:57:31;;;;;;;2.50;1.23;;;;;;;;;;5100603;27;91916;-62
2023/04/21 04:59:59;;;;;;;1.40;1.30;;;;;;;;;;5100060;27;95131;-62
2023/04/21 05:02:28;;;;;;;1.23;1.10;;;;;;;;;;5083472;27;94767;-63
2023/04/21 05:04:56;;;;;;;1.57;1.07;;;;;;;;;;5100095;27;92184;-62
2023/04/21 05:07:26;;;;;;;1.20;1.10;;;;;;;;;;5095865;27;92204;-63
2023/04/21 05:09:55;;;;;;;2.77;0.97;;;;;;;;;;5107137;27;94094;-62
2023/04/21 05:12:23;;;;;;;1.17;1.00;;;;;;;;;;5107215;27;93756;-64
2023/04/21 05:14:52;;;;;;;3.03;1.47;;;;;;;;;;5102278;27;92059;-64
2023/04/21 05:17:20;;;;;;;1.23;1.10;;;;;;;;;;5097159;27;91462;-64
2023/04/21 05:19:49;;;;;;;2.13;1.33;;;;;;;;;;5103135;27;93760;-64
2023/04/21 05:22:17;;;;;;;1.77;1.63;;;;;;;;;;5088904;27;93777;-64
2023/04/21 05:24:47;;;;;;;1.63;0.90;;;;;;;;;;5101017;27;92872;-65
2023/04/21 05:27:15;;;;;;;1.87;1.43;;;;;;;;;;5106036;27;93998;-63
2023/04/21 05:29:44;;;;;;;1.67;1.47;;;;;;;;;;5103894;27;94120;-64
2023/04/21 05:32:12;;;;;;;2.37;1.37;;;;;;;;;;5093634;27;93999;-64
2023/04/21 05:34:41;;;;;;;1.73;1.43;;;;;;;;;;5086847;27;92149;-64
2023/04/21 05:37:11;;;;;;;1.97;1.40;;;;;;;;;;5113148;27;92230;-65
2023/04/21 05:39:40;;;;;;;2.30;1.67;;;;;;;;;;5085750;27;94005;-63
2023/04/21 05:42:11;;;;;;;8.20;1.50;;;;;;;;;;5095188;27;93902;-64
2023/04/21 05:44:39;;;;;;;0.77;0.77;;;;;;;;;;5115109;27;92027;-64
2023/04/21 05:47:08;;;;;;;1.57;1.20;;;;;;;;;;5083588;27;92213;-61
2023/04/21 05:49:36;;;;;;;1.87;1.50;;;;;;;;;;5086025;27;95057;-62
2023/04/21 05:52:04;;;;;;;1.47;1.20;;;;;;;;;;5081933;27;95011;-62
2023/04/21 05:54:33;;;;;;;2.17;1.53;;;;;;;;;;5080526;27;92126;-62
2023/04/21 05:57:01;;;;;;;2.47;1.30;;;;;;;;;;5099494;27;91971;-61
2023/04/21 05:59:31;;;;;;;1.07;1.00;;;;;;;;;;5097732;27;94102;-61
2023/04/21 06:01:59;;;;;;;2.10;1.40;;;;;;;;;;5102761;27;93899;-62
2023/04/21 06:04:28;;;;;;;1.30;1.17;;;;;;;;;;5081971;27;92057;-61
2023/04/21 06:07:05;;;;;;;1.90;1.03;;;;;;;;;;5086518;27;91457;-62
2023/04/21 06:09:33;;;;;;;1.20;1.10;;;;;;;;;;5103701;27;94037;-61
2023/04/21 06:12:02;;;;;;;1.27;1.00;;;;;;;;;;5086119;27;93907;-62
2023/04/21 06:14:31;;;;;;;1.93;1.00;;;;;;;;;;5101601;27;93189;-62
2023/04/21 06:17:00;;;;;;;6.10;1.73;;;;;;;;;;5114757;27;92162;-61
2023/04/21 06:19:28;;;;;;;1.40;1.30;;;;;;;;;;5098524;27;94360;-61
2023/04/21 06:21:57;;;;;;;1.20;1.10;;;;;;;;;;5115531;27;93828;-60
2023/04/21 06:24:25;;;;;;;1.70;1.03;;;;;;;;;;5104283;27;92075;-60
2023/04/21 06:26:54;;;;;;;1.67;1.10;;;;;;;;;;5107768;27;92022;-62
2023/04/21 06:29:22;;;;;;;2.23;1.20;;;;;;;;;;5119693;27;94127;-62
2023/04/21 06:31:52;;;;;;;2.83;1.20;;;;;;;;;;5114545;27;93752;-61
2023/04/21 06:34:20;;;;;;;1.67;1.37;;;;;;;;;;5103147;27;92044;-61
2023/04/21 06:36:49;;;;;;;2.10;1.13;;;;;;;;;;5082873;27;92051;-62
2023/04/21 06:39:17;;;;;;;1.07;1.03;;;;;;;;;;5101116;27;96758;-62
2023/04/21 06:41:46;;;;;;;1.60;1.47;;;;;;;;;;5114117;27;94784;-62
2023/04/21 06:44:14;;;;;;;1.50;1.30;;;;;;;;;;5101120;27;92192;-62
2023/04/21 06:46:43;;;;;;;1.53;1.10;;;;;;;;;;5082000;27;92074;-62
2023/04/21 06:49:12;;;;;;;5.93;1.57;;;;;;;;;;5082582;27;94213;-62
2023/04/21 06:51:41;;;;;;;1.97;1.37;;;;;;;;;;5096676;27;93923;-62
2023/04/21 06:54:09;;;;;;;1.87;1.53;;;;;;;;;;5084057;27;92050;-62
2023/04/21 06:56:38;;;;;;;3.10;1.83;;;;;;;;;;5084537;27;91404;-62
2023/04/21 06:59:06;;;;;;;3.03;1.73;;;;;;;;;;5085537;27;94167;-62
2023/04/21 07:01:35;;;;;;;1.63;1.13;;;;;;;;;;5100936;27;93621;-62
2023/04/21 07:04:05;;;;;;;2.03;1.47;;;;;;;;;;5082765;27;92930;-62
2023/04/21 07:06:35;;;;;;;1.50;1.40;;;;;;;;;;5092422;27;92072;-62
2023/04/21 07:09:04;;;;;;;1.60;1.37;;;;;;;;;;5085396;27;94236;-62
2023/04/21 07:11:32;;;;;;;3.17;1.83;;;;;;;;;;5101186;27;94131;-62
2023/04/21 07:14:02;;;;;;;2.40;1.73;;;;;;;;;;5099050;27;92141;-62
2023/04/21 07:16:30;;;;;;;3.73;1.73;;;;;;;;;;5082644;27;92149;-62
2023/04/21 07:18:58;;;;;;;2.20;1.77;;;;;;;;;;5082360;27;94146;-62
2023/04/21 07:21:29;;;;;;;2.47;1.93;;;;;;;;;;5083307;27;93815;-62
2023/04/21 07:23:58;;;;;;;3.60;2.43;;;;;;;;;;5084117;27;92215;-62
2023/04/21 07:26:27;;;;;;;3.33;2.17;;;;;;;;;;5083946;27;92167;-62
2023/04/21 07:28:57;;;;;;;3.30;1.87;;;;;;;;;;5085800;27;94998;-62
2023/04/21 07:31:25;;;;;;;2.93;1.67;;;;;;;;;;5095818;27;94751;-62
2023/04/21 07:33:54;;;;;;;1.60;1.50;;;;;;;;;;5112089;27;92027;-62
2023/04/21 07:36:23;;;;;;;3.37;2.17;;;;;;;;;;5122622;27;92081;-62
2023/04/21 07:38:51;;;;;;;3.43;2.20;;;;;;;;;;5102405;27;94200;-62
2023/04/21 07:41:21;;;;;;;3.70;2.13;;;;;;;;;;5090399;27;93615;-62
2023/04/21 07:43:50;;;;;;;2.43;1.70;;;;;;;;;;5098436;27;92095;-62
2023/04/21 07:46:23;;;;;;;3.13;1.37;;;;;;;;;;5081826;27;91413;-62
2023/04/21 07:48:51;;;;;;;2.33;2.00;;;;;;;;;;5081435;27;94536;-62
2023/04/21 07:51:19;;;;;;;4.50;1.93;;;;;;;;;;5081413;27;93544;-62
2023/04/21 07:53:48;;;;;;;3.67;2.17;;;;;;;;;;5081453;27;92947;-62
2023/04/21 07:56:16;;;;;;;5.13;2.47;;;;;;;;;;5089496;27;92075;-62
2023/04/21 07:58:46;;;;;;;3.20;2.37;;;;;;;;;;5099180;27;94123;-62
2023/04/21 08:01:15;;;;;;;3.90;2.20;;;;;;;;;;5101641;27;93968;-62
2023/04/21 08:03:43;;;;;;;4.43;2.13;;;;;;;;;;5103105;27;91993;-62
2023/04/21 08:06:12;;;;;;;4.63;2.77;;;;;;;;;;5102330;27;91944;-62
2023/04/21 08:08:40;;;;;;;8.03;2.13;;;;;;;;;;5102056;27;92999;-62
2023/04/21 08:11:08;;;;;;;3.47;2.50;;;;;;;;;;5102022;27;93865;-62
2023/04/21 08:13:38;;;;;;;2.57;2.33;;;;;;;;;;5102512;27;92846;-62
2023/04/21 08:16:08;;;;;;;4.13;2.73;;;;;;;;;;5102403;27;92080;-62
2023/04/21 08:18:36;;;;;;;2.90;1.97;;;;;;;;;;5101785;27;95140;-62
2023/04/21 08:21:05;;;;;;;3.73;2.67;;;;;;;;;;5102171;27;94556;-62
2023/04/21 08:23:33;;;;;;;5.27;2.97;;;;;;;;;;5102780;27;92060;-62
2023/04/21 08:26:01;;;;;;;2.80;2.53;;;;;;;;;;5102160;27;92006;-62
2023/04/21 08:28:30;;;;;;;4.80;2.83;;;;;;;;;;5101596;27;94184;-62
2023/04/21 08:30:59;;;;;;;4.73;3.17;;;;;;;;;;5101687;27;94013;-62
2023/04/21 08:33:29;;;;;;;4.27;2.33;;;;;;;;;;5101248;27;91772;-62
2023/04/21 08:35:57;;;;;;;3.27;2.63;;;;;;;;;;5102152;27;91451;-62
2023/04/21 08:38:35;;;;;;;3.53;2.43;;;;;;;;;;5102215;27;94514;-62
2023/04/21 08:41:03;;;;;;;2.90;2.40;;;;;;;;;;5102254;27;94448;-62
2023/04/21 08:43:31;;;;;;;5.80;3.33;;;;;;;;;;5101774;27;92976;-62
2023/04/21 08:46:00;;;;;;;3.40;2.30;;;;;;;;;;5101320;27;92092;-62
2023/04/21 08:48:30;;;;;;;3.47;2.57;;;;;;;;;;5100968;27;94135;-62
2023/04/21 08:50:58;;;;;;;2.80;2.60;;;;;;;;;;5101171;27;94260;-62
2023/04/21 08:53:27;;;;;;;3.40;2.60;;;;;;;;;;5102500;27;91890;-62
2023/04/21 08:55:56;;;;;;;3.00;2.53;;;;;;;;;;5101661;27;92001;-62
2023/04/21 08:58:38;;;;;;;4.60;2.73;;;;;;;;;;5101580;27;94081;-62
2023/04/21 09:01:07;;;;;;;5.20;3.33;;;;;;;;;;5101725;27;93981;-62
2023/04/21 09:03:37;;;;;;;5.07;2.87;;;;;;;;;;5101745;27;92054;-62
2023/04/21 09:06:06;;;;;;;4.47;2.67;;;;;;;;;;5101379;27;91932;-62
2023/04/21 09:08:38;;;;;;;5.00;2.97;;;;;;;;;;5101109;27;93883;-62
2023/04/21 09:11:07;;;;;;;4.33;2.93;;;;;;;;;;5101027;27;95210;-62
2023/04/21 09:13:35;;;;;;;5.00;2.70;;;;;;;;;;5101577;27;91914;-62
2023/04/21 09:16:04;;;;;;;6.50;3.33;;;;;;;;;;5101502;27;91864;-62
2023/04/21 09:18:39;;;;;;;5.83;2.93;;;;;;;;;;5101447;27;94181;-62
2023/04/21 09:21:08;;;;;;;3.43;2.90;;;;;;;;;;5101087;27;93963;-62
2023/04/21 09:23:40;;;;;;;4.40;2.37;;;;;;;;;;5101945;27;91891;-62
2023/04/21 09:26:10;;;;;;;5.53;2.90;;;;;;;;;;5102177;27;91262;-62
2023/04/21 09:28:41;;;;;;;4.53;3.07;;;;;;;;;;5101225;27;91979;-62
2023/04/21 09:31:14;;;;;;;3.80;2.40;;;;;;;;;;5100933;27;92965;-62
2023/04/21 09:33:48;;;;;;;3.80;2.50;;;;;;;;;;5101159;27;93020;-62
2023/04/21 09:36:25;;;;;;;5.33;3.17;;;;;;;;;;5100886;27;92049;-62
2023/04/21 09:38:57;;;;;;;3.50;3.13;;;;;;;;;;5100985;27;94171;-62
2023/04/21 09:41:45;;;;;;;4.17;2.97;;;;;;;;;;5101074;27;95957;-62
2023/04/21 09:44:16;;;;;;;4.33;3.13;;;;;;;;;;5101539;27;92013;-62
2023/04/21 09:46:45;;;;;;;4.13;2.90;;;;;;;;;;5100916;27;91839;-62
2023/04/21 09:49:15;;;;;;;9.00;3.27;;;;;;;;;;5100939;27;93357;-62
2023/04/21 09:51:44;;;;;;;5.70;3.00;;;;;;;;;;5101441;27;93833;-62
2023/04/21 09:54:16;;;;;;;4.00;3.10;;;;;;;;;;5101061;27;91996;-62
2023/04/21 09:56:58;;;;;;;5.00;2.73;;;;;;;;;;5101076;27;92090;-62
2023/04/21 09:59:28;;;;;;;4.27;2.67;;;;;;;;;;5100480;27;95049;-62
2023/04/21 10:01:56;;;;;;;4.43;2.40;;;;;;;;;;5100554;27;94733;-62
2023/04/21 10:04:26;;;;;;;2.17;1.83;;;;;;;;;;5101268;27;92234;-62
2023/04/21 10:06:56;;;;;;;3.40;2.80;;;;;;;;;;5100308;27;91974;-62
2023/04/21 10:09:24;;;;;;;3.63;3.03;;;;;;;;;;5100324;27;94101;-62
2023/04/21 10:11:54;;;;;;;4.30;2.23;;;;;;;;;;5100206;27;93669;-62
2023/04/21 10:14:22;;;;;;;3.53;2.27;;;;;;;;;;5100952;27;91869;-62
2023/04/21 10:16:56;;;;;;;3.80;2.30;;;;;;;;;;5100649;27;91375;-62
2023/04/21 10:19:26;;;;;;;2.83;2.37;;;;;;;;;;5100049;27;92984;-62
2023/04/21 10:21:56;;;;;;;4.80;2.60;;;;;;;;;;5099978;27;93441;-62
2023/04/21 10:24:24;;;;;;;2.93;2.23;;;;;;;;;;5100087;27;92942;-62
2023/04/21 10:26:54;;;;;;;4.30;3.17;;;;;;;;;;5100579;27;92050;-62
2023/04/21 10:29:29;;;;;;;3.07;2.60;;;;;;;;;;5100077;27;94057;-62
2023/04/21 10:32:16;;;;;;;5.57;2.23;;;;;;;;;;5100071;27;93855;-62
2023/04/21 10:34:46;;;;;;;2.23;2.00;;;;;;;;;;5100522;27;91905;-62
2023/04/21 10:37:18;;;;;;;4.00;2.50;;;;;;;;;;5100230;27;92126;-62
2023/04/21 10:39:51;;;;;;;3.50;2.53;;;;;;;;;;5100031;27;94282;-62
2023/04/21 10:42:21;;;;;;;4.10;1.93;;;;;;;;;;5100483;27;93648;-62
2023/04/21 10:44:53;;;;;;;3.93;2.73;;;;;;;;;;5100527;27;91775;-62
2023/04/21 10:47:26;;;;;;;3.90;2.57;;;;;;;;;;5099869;27;92056;-62
2023/04/21 10:49:56;;;;;;;3.27;2.40;;;;;;;;;;5099188;27;95327;-62
2023/04/21 10:52:30;;;;;;;2.80;2.33;;;;;;;;;;5099780;27;93760;-62
2023/04/21 10:55:05;;;;;;;2.80;2.20;;;;;;;;;;5100547;27;91870;-62
2023/04/21 10:57:34;;;;;;;2.77;2.20;;;;;;;;;;5103828;27;92046;-62
2023/04/21 11:00:05;;;;;;;2.10;1.93;;;;;;;;;;5103227;27;94352;-62
2023/04/21 11:02:34;;;;;;;2.53;2.10;;;;;;;;;;5103153;27;93649;-62
2023/04/21 11:05:09;;;;;;;3.33;2.27;;;;;;;;;;5103280;27;91957;-62
2023/04/21 11:07:37;;;;;;;3.40;3.10;;;;;;;;;;5103994;27;91208;-62
2023/04/21 11:10:06;;;;;;;3.10;2.10;;;;;;;;;;5102788;27;94193;-62
2023/04/21 11:12:35;;;;;;;2.33;2.13;;;;;;;;;;5102880;27;93262;-62
2023/04/21 11:15:04;;;;;;;2.57;2.03;;;;;;;;;;5103128;27;92714;-62
2023/04/21 11:17:32;;;;;;;3.77;2.00;;;;;;;;;;5103475;27;92129;-62
2023/04/21 11:20:02;;;;;;;3.77;2.03;;;;;;;;;;5103187;27;94159;-62
2023/04/21 11:22:32;;;;;;;2.67;2.10;;;;;;;;;;5103304;27;93852;-62
2023/04/21 11:25:01;;;;;;;3.10;2.17;;;;;;;;;;5103514;27;92084;-62
2023/04/21 11:27:30;;;;;;;2.13;1.93;;;;;;;;;;5103531;27;91955;-62
2023/04/21 11:29:59;;;;;;;3.30;1.97;;;;;;;;;;5102676;27;94083;-62
2023/04/21 11:32:28;;;;;;;1.73;1.60;;;;;;;;;;5103721;27;93740;-62
2023/04/21 11:34:56;;;;;;;2.23;1.70;;;;;;;;;;5103518;27;91983;-62
2023/04/21 11:37:26;;;;;;;1.83;1.47;;;;;;;;;;5102965;27;91908;-62
2023/04/21 11:39:59;;;;;;;2.33;1.47;;;;;;;;;;5102243;27;97646;-62
2023/04/21 11:42:28;;;;;;;2.00;1.77;;;;;;;;;;5102786;27;94871;-62
2023/04/21 11:44:56;;;;;;;2.60;1.97;;;;;;;;;;5103240;27;91959;-62
2023/04/21 11:47:25;;;;;;;2.63;2.07;;;;;;;;;;5102399;27;91929;-62
2023/04/21 11:49:55;;;;;;;2.40;1.77;;;;;;;;;;5102017;27;94106;-62
2023/04/21 11:52:24;;;;;;;3.10;1.90;;;;;;;;;;5102491;27;93887;-62
2023/04/21 11:54:56;;;;;;;2.53;1.60;;;;;;;;;;5102948;27;92123;-62
2023/04/21 11:57:26;;;;;;;3.20;1.80;;;;;;;;;;5103235;27;91304;-62
2023/04/21 11:59:55;;;;;;;1.70;1.60;;;;;;;;;;5102725;27;94111;-62
2023/04/21 12:02:25;;;;;;;2.90;2.07;;;;;;;;;;5102406;27;93875;-62
2023/04/21 12:05:00;;;;;;;2.00;1.70;;;;;;;;;;5102637;27;92761;-62
2023/04/21 12:07:30;;;;;;;2.03;1.83;;;;;;;;;;5101163;27;92004;-62
2023/04/21 12:09:59;;;;;;;2.10;1.80;;;;;;;;;;5102513;27;94121;-62
2023/04/21 12:12:28;;;;;;;2.00;1.80;;;;;;;;;;5102404;27;94008;-62
2023/04/21 12:14:58;;;;;;;3.60;1.90;;;;;;;;;;5102931;27;92053;-62
2023/04/21 12:17:27;;;;;;;2.10;1.77;;;;;;;;;;5102457;27;91926;-62
2023/04/21 12:19:55;;;;;;;2.67;1.50;;;;;;;;;;5102608;27;92893;-62
2023/04/21 12:22:24;;;;;;;1.40;1.27;;;;;;;;;;5102819;27;93592;-62
2023/04/21 12:24:52;;;;;;;3.63;1.90;;;;;;;;;;5102653;27;91974;-62
2023/04/21 12:27:21;;;;;;;1.63;1.53;;;;;;;;;;5102269;27;92065;-62
2023/04/21 12:29:51;;;;;;;3.00;2.07;;;;;;;;;;5101417;27;95078;-62
2023/04/21 12:32:19;;;;;;;1.90;1.50;;;;;;;;;;5102115;27;94768;-62
2023/04/21 12:34:48;;;;;;;3.83;1.90;;;;;;;;;;5102272;27;92558;-62
2023/04/21 12:37:17;;;;;;;2.23;1.60;;;;;;;;;;5101909;27;92025;-62
2023/04/21 12:39:45;;;;;;;1.90;1.40;;;;;;;;;;5102171;27;93355;-62
2023/04/21 12:42:13;;;;;;;3.10;1.70;;;;;;;;;;5102058;27;95114;-62
2023/04/21 12:44:42;;;;;;;2.50;1.27;;;;;;;;;;5102235;27;92103;-62
2023/04/21 12:47:11;;;;;;;2.03;1.40;;;;;;;;;;5101880;27;91449;-62
2023/04/21 12:49:40;;;;;;;3.30;1.50;;;;;;;;;;5101818;27;94135;-62
2023/04/21 12:52:08;;;;;;;1.43;1.33;;;;;;;;;;5101685;27;94268;-62
2023/04/21 12:54:37;;;;;;;1.47;1.37;;;;;;;;;;5101643;27;93136;-62
2023/04/21 12:57:05;;;;;;;1.87;1.40;;;;;;;;;;5102089;27;92047;-62
2023/04/21 12:59:34;;;;;;;2.57;1.87;;;;;;;;;;5101740;27;94205;-62
2023/04/21 13:02:02;;;;;;;2.93;1.63;;;;;;;;;;5101251;27;93914;-62
2023/04/21 13:04:32;;;;;;;1.70;1.60;;;;;;;;;;5102329;27;91840;-62
2023/04/21 13:07:01;;;;;;;2.50;1.40;;;;;;;;;;5100799;27;92256;-62
2023/04/21 13:09:30;;;;;;;1.70;1.50;;;;;;;;;;5101676;27;93539;-62
2023/04/21 13:12:00;;;;;;;1.63;1.20;;;;;;;;;;5101380;27;92776;-62
2023/04/21 13:14:29;;;;;;;2.43;1.40;;;;;;;;;;5101800;27;92073;-62
2023/04/21 13:16:57;;;;;;;1.53;1.43;;;;;;;;;;5101480;27;92093;-62
2023/04/21 13:19:27;;;;;;;1.20;1.10;;;;;;;;;;5099815;27;95103;-62
2023/04/21 13:21:57;;;;;;;1.10;1.00;;;;;;;;;;5101037;27;94939;-62
2023/04/21 13:24:25;;;;;;;1.43;1.33;;;;;;;;;;5101851;27;91758;-62
2023/04/21 13:26:54;;;;;;;1.43;1.10;;;;;;;;;;5101808;27;91874;-62
2023/04/21 13:29:23;;;;;;;1.60;1.43;;;;;;;;;;5118671;27;94126;-62
2023/04/21 13:31:51;;;;;;;1.87;1.47;;;;;;;;;;5126715;27;92528;-61
2023/04/21 13:34:20;;;;;;;1.77;1.23;;;;;;;;;;5126945;27;91778;-62
2023/04/21 13:36:49;;;;;;;1.67;1.57;;;;;;;;;;5125911;27;90617;-62
2023/04/21 13:39:20;;;;;;;2.07;1.20;;;;;;;;;;5123148;27;93053;-62
2023/04/21 13:41:48;;;;;;;3.23;1.63;;;;;;;;;;5120338;27;92735;-62
2023/04/21 13:44:20;;;;;;;1.70;1.60;;;;;;;;;;5118671;27;92881;-62
2023/04/21 13:46:50;;;;;;;1.63;1.53;;;;;;;;;;5122674;27;91977;-62
2023/04/21 13:49:19;;;;;;;1.20;1.10;;;;;;;;;;5110367;27;93043;-62
2023/04/21 13:51:48;;;;;;;2.90;1.30;;;;;;;;;;5100258;27;93936;-62
2023/04/21 13:54:16;;;;;;;1.97;1.57;;;;;;;;;;5101002;27;92023;-62
2023/04/21 13:56:46;;;;;;;1.70;1.60;;;;;;;;;;5100837;27;92105;-61
2023/04/21 13:59:15;;;;;;;0.93;0.90;;;;;;;;;;5100110;27;94200;-62
2023/04/21 14:01:43;;;;;;;1.50;1.20;;;;;;;;;;5101164;27;93863;-62
2023/04/21 14:04:12;;;;;;;1.40;1.30;;;;;;;;;;5100856;27;92084;-62
2023/04/21 14:06:41;;;;;;;1.90;1.60;;;;;;;;;;5100211;27;92022;-62
2023/04/21 14:09:09;;;;;;;1.40;1.30;;;;;;;;;;5099609;27;95195;-62
2023/04/21 14:11:38;;;;;;;1.80;1.30;;;;;;;;;;5100297;27;94903;-62
2023/04/21 14:14:08;;;;;;;1.10;1.00;;;;;;;;;;5101200;27;92065;-62
2023/04/21 14:16:37;;;;;;;1.63;1.30;;;;;;;;;;5100682;27;92019;-63
2023/04/21 14:19:06;;;;;;;2.47;1.57;;;;;;;;;;5100104;27;94262;-62
2023/04/21 14:21:34;;;;;;;1.57;1.23;;;;;;;;;;5100151;27;93806;-62
2023/04/21 14:24:03;;;;;;;1.53;1.10;;;;;;;;;;5100295;27;91882;-62
2023/04/21 14:26:31;;;;;;;1.63;1.50;;;;;;;;;;5100204;27;91278;-62
2023/04/21 14:29:00;;;;;;;2.33;1.80;;;;;;;;;;5100349;27;94111;-62
2023/04/21 14:31:30;;;;;;;2.37;1.43;;;;;;;;;;5101839;27;94175;-62
2023/04/21 14:33:58;;;;;;;1.70;1.30;;;;;;;;;;5103188;27;93033;-62
2023/04/21 14:36:27;;;;;;;1.33;1.23;;;;;;;;;;5103495;27;92148;-62
2023/04/21 14:38:55;;;;;;;2.17;1.63;;;;;;;;;;5103629;27;94211;-62
2023/04/21 14:41:23;;;;;;;2.20;1.30;;;;;;;;;;5103755;27;93772;-62
2023/04/21 14:43:55;;;;;;;3.23;1.27;;;;;;;;;;5104027;27;92121;-62
2023/04/21 14:46:24;;;;;;;3.07;1.33;;;;;;;;;;5103485;27;92638;-62
2023/04/21 14:48:53;;;;;;;2.83;1.67;;;;;;;;;;5103063;27;94237;-62
2023/04/21 14:51:22;;;;;;;2.17;1.50;;;;;;;;;;5103099;27;93810;-62
2023/04/21 14:53:51;;;;;;;2.30;1.43;;;;;;;;;;5104367;27;92059;-62
2023/04/21 14:56:19;;;;;;;2.03;1.40;;;;;;;;;;5103873;27;92003;-62